Time,TemperatureF,DewpointF,PressureIn,WindDirection,WindDirectionDegrees,WindSpeedMPH,WindSpeedGustMPH,Humidity,HourlyPrecipIn,Conditions,Clouds,dailyrainin,SoftwareType,DateUTC
2013-02-12 00:01:00,14.0,7.0,-100.00,SE,140,3.0,4.0,74,-99.99,,,-99.99,,2013-02-12 07:01:00,
2013-02-12 00:11:00,13.0,6.0,-100.00,SSE,155,4.0,6.0,74,-99.99,,,-99.99,,2013-02-12 07:11:00,
2013-02-12 00:21:00,13.0,6.0,-100.00,SE,135,1.0,4.0,74,-99.99,,,-99.99,,2013-02-12 07:21:00,
2013-02-12 00:31:00,13.0,7.0,-100.00,ESE,110,2.0,3.0,75,-99.99,,,-99.99,,2013-02-12 07:31:00,
2013-02-12 00:41:00,13.0,7.0,-100.00,SE,125,2.0,3.0,76,-99.99,,,-99.99,,2013-02-12 07:41:00,
2013-02-12 00:51:00,12.0,6.0,-100.00,ESE,120,2.0,4.0,76,-99.99,,,-99.99,,2013-02-12 07:51:00,
2013-02-12 01:01:00,12.0,6.0,-100.00,SE,130,4.0,6.0,77,-99.99,,,-99.99,,2013-02-12 08:01:00,
2013-02-12 01:11:00,12.0,7.0,-100.00,ESE,110,2.0,4.0,78,-99.99,,,-99.99,,2013-02-12 08:11:00,
2013-02-12 01:21:00,12.0,7.0,-100.00,ESE,115,2.0,3.0,78,-99.99,,,-99.99,,2013-02-12 08:21:00,
2013-02-12 01:31:00,12.0,7.0,-100.00,East,85,3.0,4.0,78,-99.99,,,-99.99,,2013-02-12 08:31:00,
2013-02-12 01:41:00,11.0,6.0,-100.00,East,100,2.0,4.0,79,-99.99,,,-99.99,,2013-02-12 08:41:00,
2013-02-12 01:52:00,11.0,6.0,-100.00,ESE,110,3.0,4.0,80,-99.99,,,-99.99,,2013-02-12 08:52:00,
2013-02-12 02:01:00,11.0,6.0,-100.00,East,100,2.0,4.0,80,-99.99,,,-99.99,,2013-02-12 09:01:00,
2013-02-12 02:11:00,10.0,5.0,-100.00,East,90,1.0,2.0,80,-99.99,,,-99.99,,2013-02-12 09:11:00,
2013-02-12 02:21:00,10.0,5.0,-100.00,East,80,2.0,3.0,80,-99.99,,,-99.99,,2013-02-12 09:21:00,
2013-02-12 02:31:00,10.0,5.0,-100.00,ESE,120,2.0,2.0,80,-99.99,,,-99.99,,2013-02-12 09:31:00,
2013-02-12 02:41:00,11.0,6.0,-100.00,ESE,115,1.0,2.0,81,-99.99,,,-99.99,,2013-02-12 09:41:00,
2013-02-12 02:51:00,11.0,6.0,-100.00,ESE,120,2.0,2.0,81,-99.99,,,-99.99,,2013-02-12 09:51:00,
2013-02-12 03:01:00,11.0,6.0,-100.00,East,85,2.0,3.0,81,-99.99,,,-99.99,,2013-02-12 10:01:00,
2013-02-12 03:11:00,10.0,5.0,-100.00,ESE,105,2.0,4.0,81,-99.99,,,-99.99,,2013-02-12 10:11:00,
2013-02-12 03:21:00,9.0,5.0,-100.00,East,80,2.0,2.0,81,-99.99,,,-99.99,,2013-02-12 10:21:00,
2013-02-12 03:31:00,9.0,5.0,-100.00,East,95,2.0,3.0,81,-99.99,,,-99.99,,2013-02-12 10:31:00,
2013-02-12 03:43:00,9.0,5.0,-100.00,East,100,2.0,3.0,81,-99.99,,,-99.99,,2013-02-12 10:43:00,
2013-02-12 03:52:00,9.0,5.0,-100.00,East,85,4.0,4.0,81,-99.99,,,-99.99,,2013-02-12 10:52:00,
2013-02-12 04:01:00,9.0,5.0,-100.00,East,85,3.0,4.0,81,-99.99,,,-99.99,,2013-02-12 11:01:00,
2013-02-12 04:11:00,9.0,5.0,-100.00,ESE,110,2.0,4.0,81,-99.99,,,-99.99,,2013-02-12 11:11:00,
2013-02-12 04:21:00,9.0,4.0,-100.00,SE,125,2.0,4.0,81,-99.99,,,-99.99,,2013-02-12 11:21:00,
2013-02-12 04:31:00,8.0,4.0,-100.00,SE,130,2.0,4.0,81,-99.99,,,-99.99,,2013-02-12 11:31:00,
2013-02-12 04:41:00,8.0,4.0,-100.00,ESE,105,3.0,4.0,81,-99.99,,,-99.99,,2013-02-12 11:41:00,
2013-02-12 04:52:00,8.0,4.0,-100.00,East,80,3.0,4.0,81,-99.99,,,-99.99,,2013-02-12 11:52:00,
2013-02-12 05:01:00,8.0,4.0,-100.00,East,90,3.0,4.0,81,-99.99,,,-99.99,,2013-02-12 12:01:00,
2013-02-12 05:11:00,8.0,3.0,-100.00,ESE,115,2.0,4.0,81,-99.99,,,-99.99,,2013-02-12 12:11:00,
2013-02-12 05:21:00,7.0,3.0,-100.00,ESE,105,2.0,4.0,81,-99.99,,,-99.99,,2013-02-12 12:21:00,
2013-02-12 05:32:00,7.0,3.0,-100.00,ESE,120,2.0,4.0,81,-99.99,,,-99.99,,2013-02-12 12:32:00,
2013-02-12 05:42:00,7.0,3.0,-100.00,SSE,160,2.0,3.0,81,-99.99,,,-99.99,,2013-02-12 12:42:00,
2013-02-12 05:52:00,7.0,3.0,-100.00,East,85,1.0,2.0,81,-99.99,,,-99.99,,2013-02-12 12:52:00,
2013-02-12 06:01:00,7.0,3.0,-100.00,ESE,115,0.0,2.0,81,-99.99,,,-99.99,,2013-02-12 13:01:00,
2013-02-12 06:11:00,7.0,3.0,-100.00,ESE,115,0.0,0.0,81,-99.99,,,-99.99,,2013-02-12 13:11:00,
2013-02-12 06:22:00,7.0,3.0,-100.00,SE,145,1.0,1.0,81,-99.99,,,-99.99,,2013-02-12 13:22:00,
2013-02-12 06:31:00,7.0,2.0,-100.00,SW,220,0.0,1.0,81,-99.99,,,-99.99,,2013-02-12 13:31:00,
2013-02-12 06:42:00,7.0,3.0,-100.00,SW,230,0.0,0.0,81,-99.99,,,-99.99,,2013-02-12 13:42:00,
2013-02-12 06:51:00,6.0,2.0,-100.00,South,180,2.0,3.0,82,-99.99,,,-99.99,,2013-02-12 13:51:00,
2013-02-12 07:01:00,6.0,2.0,-100.00,South,185,0.0,2.0,82,-99.99,,,-99.99,,2013-02-12 14:01:00,
2013-02-12 07:11:00,7.0,3.0,-100.00,North,355,0.0,1.0,82,-99.99,,,-99.99,,2013-02-12 14:11:00,
2013-02-12 07:21:00,7.0,3.0,-100.00,NE,40,1.0,2.0,82,-99.99,,,-99.99,,2013-02-12 14:21:00,
2013-02-12 07:31:00,7.0,2.0,-100.00,NE,45,1.0,3.0,82,-99.99,,,-99.99,,2013-02-12 14:31:00,
2013-02-12 07:41:00,7.0,3.0,-100.00,ESE,110,2.0,3.0,83,-99.99,,,-99.99,,2013-02-12 14:41:00,
2013-02-12 07:52:00,8.0,4.0,-100.00,East,100,4.0,4.0,83,-99.99,,,-99.99,,2013-02-12 14:52:00,
2013-02-12 08:01:00,8.0,4.0,-100.00,East,90,4.0,6.0,83,-99.99,,,-99.99,,2013-02-12 15:01:00,
2013-02-12 08:11:00,8.0,4.0,-100.00,ESE,110,2.0,4.0,83,-99.99,,,-99.99,,2013-02-12 15:11:00,
2013-02-12 08:21:00,10.0,6.0,-100.00,East,95,2.0,3.0,83,-99.99,,,-99.99,,2013-02-12 15:21:00,
2013-02-12 08:32:00,11.0,7.0,-100.00,SE,140,3.0,4.0,82,-99.99,,,-99.99,,2013-02-12 15:32:00,
2013-02-12 08:42:00,12.0,8.0,-100.00,SSE,150,4.0,6.0,81,-99.99,,,-99.99,,2013-02-12 15:42:00,
2013-02-12 08:52:00,13.0,8.0,-100.00,East,100,1.0,6.0,80,-99.99,,,-99.99,,2013-02-12 15:52:00,
2013-02-12 09:01:00,15.0,9.0,-100.00,SSE,165,1.0,3.0,78,-99.99,,,-99.99,,2013-02-12 16:01:00,
2013-02-12 09:11:00,16.0,9.0,-100.00,SSE,165,2.0,4.0,75,-99.99,,,-99.99,,2013-02-12 16:11:00,
2013-02-12 09:22:00,17.0,10.0,-100.00,SSW,210,2.0,4.0,73,-99.99,,,-99.99,,2013-02-12 16:22:00,
2013-02-12 09:31:00,18.0,10.0,-100.00,SSW,200,2.0,3.0,71,-99.99,,,-99.99,,2013-02-12 16:31:00,
2013-02-12 09:41:00,18.0,9.0,-100.00,SW,215,2.0,3.0,68,-99.99,,,-99.99,,2013-02-12 16:41:00,
2013-02-12 09:52:00,19.0,10.0,-100.00,SW,215,2.0,3.0,67,-99.99,,,-99.99,,2013-02-12 16:52:00,
2013-02-12 10:01:00,21.0,11.0,-100.00,South,185,2.0,4.0,63,-99.99,,,-99.99,,2013-02-12 17:01:00,
2013-02-12 10:11:00,22.0,10.0,-100.00,South,190,2.0,4.0,61,-99.99,,,-99.99,,2013-02-12 17:11:00,
2013-02-12 10:21:00,22.0,10.0,-100.00,SSW,195,2.0,4.0,57,-99.99,,,-99.99,,2013-02-12 17:21:00,
2013-02-12 10:31:00,23.0,10.0,-100.00,SSW,200,2.0,4.0,55,-99.99,,,-99.99,,2013-02-12 17:31:00,
2013-02-12 10:41:00,24.0,10.0,-100.00,SW,215,1.0,4.0,54,-99.99,,,-99.99,,2013-02-12 17:41:00,
2013-02-12 10:52:00,25.0,10.0,-100.00,South,185,2.0,3.0,52,-99.99,,,-99.99,,2013-02-12 17:52:00,
2013-02-12 11:01:00,25.0,9.0,-100.00,SSW,200,2.0,4.0,51,-99.99,,,-99.99,,2013-02-12 18:01:00,
2013-02-12 11:11:00,25.0,9.0,-100.00,South,180,1.0,3.0,50,-99.99,,,-99.99,,2013-02-12 18:11:00,
2013-02-12 11:22:00,25.0,9.0,-100.00,West,275,1.0,4.0,49,-99.99,,,-99.99,,2013-02-12 18:22:00,
2013-02-12 11:31:00,26.0,10.0,-100.00,South,175,3.0,4.0,49,-99.99,,,-99.99,,2013-02-12 18:31:00,
2013-02-12 11:41:00,26.0,10.0,-100.00,SW,225,4.0,4.0,48,-99.99,,,-99.99,,2013-02-12 18:41:00,
2013-02-12 11:51:00,27.0,10.0,-100.00,SSE,165,4.0,5.0,48,-99.99,,,-99.99,,2013-02-12 18:51:00,
2013-02-12 12:02:00,28.0,10.0,-100.00,SSE,165,4.0,6.0,46,-99.99,,,-99.99,,2013-02-12 19:02:00,
2013-02-12 12:11:00,28.0,10.0,-100.00,South,175,4.0,5.0,45,-99.99,,,-99.99,,2013-02-12 19:11:00,
2013-02-12 12:21:00,29.0,10.0,-100.00,SSW,205,3.0,5.0,43,-99.99,,,-99.99,,2013-02-12 19:21:00,
2013-02-12 12:31:00,29.0,10.0,-100.00,SSE,165,1.0,4.0,43,-99.99,,,-99.99,,2013-02-12 19:31:00,
2013-02-12 12:41:00,30.0,10.0,-100.00,SSW,210,1.0,5.0,42,-99.99,,,-99.99,,2013-02-12 19:41:00,
2013-02-12 12:52:00,30.0,10.0,-100.00,South,175,2.0,6.0,41,-99.99,,,-99.99,,2013-02-12 19:52:00,
2013-02-12 13:01:00,30.0,10.0,-100.00,WSW,250,2.0,7.0,41,-99.99,,,-99.99,,2013-02-12 20:01:00,
2013-02-12 13:11:00,30.0,9.0,-100.00,NNW,335,1.0,5.0,39,-99.99,,,-99.99,,2013-02-12 20:11:00,
2013-02-12 13:21:00,32.0,10.0,-100.00,South,180,2.0,4.0,38,-99.99,,,-99.99,,2013-02-12 20:21:00,
2013-02-12 13:31:00,33.0,9.0,-100.00,SSE,150,2.0,5.0,37,-99.99,,,-99.99,,2013-02-12 20:31:00,
2013-02-12 13:41:00,34.0,10.0,-100.00,South,175,4.0,6.0,36,-99.99,,,-99.99,,2013-02-12 20:41:00,
2013-02-12 13:51:00,34.0,9.0,-100.00,South,185,2.0,6.0,34,-99.99,,,-99.99,,2013-02-12 20:51:00,
2013-02-12 14:01:00,35.0,9.0,-100.00,SSW,200,2.0,4.0,33,-99.99,,,-99.99,,2013-02-12 21:01:00,
2013-02-12 14:11:00,35.0,8.0,-100.00,South,180,4.0,6.0,32,-99.99,,,-99.99,,2013-02-12 21:11:00,
2013-02-12 14:21:00,36.0,9.0,-100.00,SE,125,2.0,5.0,31,-99.99,,,-99.99,,2013-02-12 21:21:00,
2013-02-12 14:31:00,35.0,8.0,-100.00,South,185,4.0,6.0,30,-99.99,,,-99.99,,2013-02-12 21:31:00,
2013-02-12 14:41:00,35.0,7.0,-100.00,SW,230,2.0,7.0,30,-99.99,,,-99.99,,2013-02-12 21:41:00,
2013-02-12 14:51:00,36.0,8.0,-100.00,South,190,3.0,4.0,30,-99.99,,,-99.99,,2013-02-12 21:51:00,
2013-02-12 15:01:00,36.0,8.0,-100.00,South,190,2.0,4.0,30,-99.99,,,-99.99,,2013-02-12 22:01:00,
2013-02-12 15:12:00,37.0,8.0,-100.00,SSW,205,3.0,6.0,30,-99.99,,,-99.99,,2013-02-12 22:12:00,
2013-02-12 15:21:00,36.0,8.0,-100.00,South,185,4.0,7.0,30,-99.99,,,-99.99,,2013-02-12 22:21:00,
2013-02-12 15:31:00,37.0,8.0,-100.00,SSE,155,2.0,5.0,30,-99.99,,,-99.99,,2013-02-12 22:31:00,
2013-02-12 15:41:00,36.0,8.0,-100.00,West,265,1.0,4.0,29,-99.99,,,-99.99,,2013-02-12 22:41:00,
2013-02-12 15:51:00,37.0,8.0,-100.00,ESE,105,0.0,4.0,29,-99.99,,,-99.99,,2013-02-12 22:51:00,
2013-02-12 16:01:00,38.0,8.0,-100.00,South,175,2.0,2.0,29,-99.99,,,-99.99,,2013-02-12 23:01:00,
2013-02-12 16:11:00,37.0,8.0,-100.00,SSW,210,2.0,3.0,29,-99.99,,,-99.99,,2013-02-12 23:11:00,
2013-02-12 16:21:00,37.0,8.0,-100.00,SW,220,1.0,4.0,29,-99.99,,,-99.99,,2013-02-12 23:21:00,
2013-02-12 16:31:00,36.0,8.0,-100.00,WNW,285,1.0,4.0,29,-99.99,,,-99.99,,2013-02-12 23:31:00,
2013-02-12 16:41:00,37.0,8.0,-100.00,WSW,250,3.0,5.0,29,-99.99,,,-99.99,,2013-02-12 23:41:00,
2013-02-12 16:52:00,35.0,7.0,-100.00,SW,235,3.0,6.0,30,-99.99,,,-99.99,,2013-02-12 23:52:00,
2013-02-12 17:02:00,34.0,6.0,-100.00,West,280,2.0,4.0,30,-99.99,,,-99.99,,2013-02-13 00:02:00,
2013-02-12 17:11:00,34.0,7.0,-100.00,SW,235,3.0,4.0,31,-99.99,,,-99.99,,2013-02-13 00:11:00,
2013-02-12 17:21:00,33.0,7.0,-100.00,SSW,195,2.0,3.0,32,-99.99,,,-99.99,,2013-02-13 00:21:00,
2013-02-12 17:32:00,33.0,8.0,-100.00,South,185,2.0,3.0,33,-99.99,,,-99.99,,2013-02-13 00:32:00,
2013-02-12 17:42:00,33.0,8.0,-100.00,South,185,1.0,2.0,34,-99.99,,,-99.99,,2013-02-13 00:42:00,
2013-02-12 17:51:00,32.0,8.0,-100.00,SW,235,1.0,1.0,35,-99.99,,,-99.99,,2013-02-13 00:51:00,
2013-02-12 18:01:00,31.0,7.0,-100.00,NNE,20,0.0,1.0,35,-99.99,,,-99.99,,2013-02-13 01:01:00,
2013-02-12 18:11:00,30.0,7.0,-100.00,NE,40,0.0,0.0,37,-99.99,,,-99.99,,2013-02-13 01:11:00,
2013-02-12 18:21:00,28.0,7.0,-100.00,East,80,0.0,0.0,40,-99.99,,,-99.99,,2013-02-13 01:21:00,
2013-02-12 18:31:00,27.0,8.0,-100.00,SE,145,0.0,1.0,43,-99.99,,,-99.99,,2013-02-13 01:31:00,
2013-02-12 18:42:00,26.0,8.0,-100.00,North,355,0.0,3.0,47,-99.99,,,-99.99,,2013-02-13 01:42:00,
2013-02-12 18:51:00,26.0,9.0,-100.00,East,90,1.0,3.0,49,-99.99,,,-99.99,,2013-02-13 01:51:00,
2013-02-12 19:01:00,25.0,10.0,-100.00,ESE,105,1.0,2.0,52,-99.99,,,-99.99,,2013-02-13 02:01:00,
2013-02-12 19:11:00,23.0,9.0,-100.00,ESE,110,2.0,4.0,54,-99.99,,,-99.99,,2013-02-13 02:11:00,
2013-02-12 19:21:00,22.0,9.0,-100.00,SE,125,3.0,6.0,56,-99.99,,,-99.99,,2013-02-13 02:21:00,
2013-02-12 19:31:00,22.0,9.0,-100.00,SE,135,2.0,4.0,56,-99.99,,,-99.99,,2013-02-13 02:31:00,
2013-02-12 19:41:00,22.0,9.0,-100.00,SSE,165,4.0,6.0,57,-99.99,,,-99.99,,2013-02-13 02:41:00,
2013-02-12 19:52:00,21.0,9.0,-100.00,South,175,4.0,5.0,58,-99.99,,,-99.99,,2013-02-13 02:52:00,
2013-02-12 20:01:00,21.0,9.0,-100.00,SSW,200,3.0,4.0,59,-99.99,,,-99.99,,2013-02-13 03:01:00,
2013-02-12 20:11:00,21.0,9.0,-100.00,SE,145,0.0,3.0,60,-99.99,,,-99.99,,2013-02-13 03:11:00,
2013-02-12 20:21:00,21.0,10.0,-100.00,SE,140,2.0,3.0,61,-99.99,,,-99.99,,2013-02-13 03:21:00,
2013-02-12 20:31:00,20.0,10.0,-100.00,ESE,110,1.0,4.0,63,-99.99,,,-99.99,,2013-02-13 03:31:00,
2013-02-12 20:41:00,20.0,10.0,-100.00,SE,130,4.0,4.0,64,-99.99,,,-99.99,,2013-02-13 03:41:00,
2013-02-12 20:51:00,21.0,11.0,-100.00,ESE,115,3.0,6.0,64,-99.99,,,-99.99,,2013-02-13 03:51:00,
2013-02-12 21:01:00,22.0,11.0,-100.00,East,80,4.0,6.0,64,-99.99,,,-99.99,,2013-02-13 04:01:00,
2013-02-12 21:11:00,22.0,12.0,-100.00,East,100,3.0,4.0,63,-99.99,,,-99.99,,2013-02-13 04:11:00,
2013-02-12 21:21:00,22.0,12.0,-100.00,ESE,115,4.0,6.0,62,-99.99,,,-99.99,,2013-02-13 04:21:00,
2013-02-12 21:31:00,23.0,12.0,-100.00,East,80,2.0,6.0,62,-99.99,,,-99.99,,2013-02-13 04:31:00,
2013-02-12 21:41:00,23.0,12.0,-100.00,ENE,75,2.0,6.0,61,-99.99,,,-99.99,,2013-02-13 04:41:00,
2013-02-12 21:51:00,23.0,12.0,-100.00,East,95,4.0,6.0,61,-99.99,,,-99.99,,2013-02-13 04:51:00,
2013-02-12 22:01:00,23.0,12.0,-100.00,East,100,5.0,7.0,61,-99.99,,,-99.99,,2013-02-13 05:01:00,
2013-02-12 22:11:00,23.0,12.0,-100.00,ESE,110,4.0,7.0,61,-99.99,,,-99.99,,2013-02-13 05:11:00,
2013-02-12 22:22:00,23.0,12.0,-100.00,ESE,110,3.0,6.0,61,-99.99,,,-99.99,,2013-02-13 05:22:00,
2013-02-12 22:31:00,23.0,12.0,-100.00,ESE,110,3.0,4.0,61,-99.99,,,-99.99,,2013-02-13 05:31:00,
2013-02-12 22:41:00,23.0,12.0,-100.00,East,95,2.0,4.0,61,-99.99,,,-99.99,,2013-02-13 05:41:00,
2013-02-12 22:52:00,23.0,12.0,-100.00,East,100,4.0,4.0,62,-99.99,,,-99.99,,2013-02-13 05:52:00,
2013-02-12 23:02:00,24.0,12.0,-100.00,ESE,120,4.0,4.0,62,-99.99,,,-99.99,,2013-02-13 06:02:00,
2013-02-12 23:11:00,24.0,13.0,-100.00,SE,135,1.0,4.0,62,-99.99,,,-99.99,,2013-02-13 06:11:00,
2013-02-12 23:21:00,23.0,12.0,-100.00,ESE,110,2.0,3.0,62,-99.99,,,-99.99,,2013-02-13 06:21:00,
2013-02-12 23:31:00,24.0,13.0,-100.00,SE,130,1.0,2.0,62,-99.99,,,-99.99,,2013-02-13 06:31:00,
2013-02-12 23:41:00,23.0,13.0,-100.00,SE,135,0.0,3.0,62,-99.99,,,-99.99,,2013-02-13 06:41:00,
2013-02-12 23:51:00,23.0,13.0,-100.00,SE,135,0.0,3.0,62,-99.99,,,-99.99,,2013-02-13 06:51:00,